首页
METAR-TAF:

METAR-TAF

机场 :

尼诺伊·阿基诺国际机场

马尼拉, 菲律宾

纬度: 14-31N, 经度: 121-00E, 海拔: 14米

当前天气观测

该预报发布于51分钟前的20:00 UTC
风速6节,风向西南
温度 25°C
湿度 100%
气压 1007 hPa
能见度10公里或以上
散云层高于1800英尺
多云层高于9000英尺
小雨

METAR: RPLL 192000Z 23006KT 9999 -RA SCT018 BKN090 25/25 Q1007 NOSIG RMK A2974

时间: 04:51 (20:51 UTC)

预报

该预报发布于3小时和51分钟前的17:00 UTC
预报有效从19日的 18点(UTC)到 20日的 24点(UTC)
风速8节,风向西南
能见度10公里或以上
散云层高于2300英尺
多云层高于10000英尺
短暂存在
从 19日的 18点(UTC)到 19日的 24点(UTC)
风速6节,风向西南
能見度: 8000
散云层高于2200英尺
阴天层高于9000英尺
小阵雨
短暂存在
从 20日的 00点(UTC)到 20日的 06点(UTC)
风速15节,风向西转西南
能見度: 7000
少量云层高于2000英尺, 积雨云.
散云层高于2200英尺
阴天层高于9000英尺
雷暴, 小雨

TAF: RPLL 191700Z 1918/2024 23008KT 9999 SCT023 BKN100 TX30/2006Z TN25/1921Z TEMPO 1918/1924 22006KT 8000 -SHRA SCT022 OVC090 TEMPO 2000/2006 25015KT 7000 -TSRA FEW020CB SCT022 OVC090

超过4000个机场的气象观测和天气预报(METAR&TAF报告)。

可查询的气象台以黄色和红色小点在地图上表示。

将鼠标移到小点上方,可查看气象台名称。

然后点击查看天气观测和预报。

如需切换地图:点击带黑十字的绿色按钮放大地图;点击带横线的绿色按钮缩小地图;或者点击绿色箭头查看邻近地区的地图。


METAR-TAF: